createdAt,value
2022-08-05T00:00:13.038Z,7.40
2022-08-05T00:02:43.821Z,6.43
2022-08-05T00:05:27.081Z,6.53
2022-08-05T00:08:04.628Z,7.40
2022-08-05T00:10:31.191Z,5.95
2022-08-05T00:12:57.619Z,6.65
2022-08-05T00:15:55.832Z,8.38
2022-08-05T00:18:22.655Z,5.50
2022-08-05T00:20:50.377Z,8.38
2022-08-05T00:23:17.217Z,6.53
2022-08-05T00:25:57.628Z,6.10
2022-08-05T00:28:29.585Z,4.97
2022-08-05T00:30:56.271Z,4.50
2022-08-05T00:34:56.345Z,6.22
2022-08-05T00:37:09.007Z,6.10
2022-08-05T00:39:02.359Z,5.75
2022-08-05T00:41:46.859Z,4.90
2022-08-05T00:44:18.860Z,5.57
2022-08-05T00:46:47.388Z,6.32
2022-08-05T00:49:20.803Z,5.63
2022-08-05T00:51:52.029Z,7.95
2022-08-05T00:54:18.816Z,4.88
2022-08-05T00:56:51.507Z,6.20
2022-08-05T00:59:18.295Z,8.32
2022-08-05T01:01:48.550Z,6.40
2022-08-05T01:04:15.806Z,5.55
2022-08-05T01:06:43.725Z,7.18
2022-08-05T01:09:17.358Z,7.97
2022-08-05T01:11:48.879Z,5.55
2022-08-05T01:14:27.933Z,6.07
2022-08-05T01:17:16.642Z,6.53
2022-08-05T01:20:01.746Z,5.43
2022-08-05T01:22:51.463Z,7.15
2022-08-05T01:25:24.770Z,6.55
2022-08-05T01:28:37.789Z,3.95
2022-08-05T01:31:21.274Z,8.25
2022-08-05T01:34:03.232Z,8.23
2022-08-05T01:36:32.960Z,7.45
2022-08-05T01:39:00.988Z,6.25
2022-08-05T01:41:31.234Z,6.47
2022-08-05T01:43:59.268Z,8.27
2022-08-05T01:46:42.077Z,7.47
2022-08-05T01:49:23.840Z,8.40
2022-08-05T01:51:54.192Z,7.32
2022-08-05T01:58:13.647Z,6.82
2022-08-05T01:59:40.777Z,6.25
2022-08-05T02:02:14.107Z,6.15
2022-08-05T02:04:43.051Z,3.22
2022-08-05T02:07:12.907Z,5.65
2022-08-05T02:09:49.019Z,5.90
2022-08-05T02:12:52.412Z,6.05
2022-08-05T02:15:24.310Z,6.75
2022-08-05T02:18:28.318Z,6.10
2022-08-05T02:23:23.901Z,5.40
2022-08-05T02:25:52.360Z,5.65
2022-08-05T02:28:28.864Z,8.73
2022-08-05T02:31:06.119Z,8.43
2022-08-05T02:33:41.944Z,6.22
2022-08-05T02:36:13.747Z,8.20
2022-08-05T02:38:52.858Z,8.80
2022-08-05T02:41:21.437Z,7.15
2022-08-05T02:44:06.539Z,7.38
2022-08-05T02:46:43.932Z,6.90
2022-08-05T02:49:26.360Z,9.10
2022-08-05T02:52:04.088Z,7.68
2022-08-05T02:54:35.007Z,5.35
2022-08-05T02:57:10.410Z,6.30
2022-08-05T02:59:54.133Z,5.18
2022-08-05T03:02:23.302Z,8.10
2022-08-05T03:04:55.208Z,7.10
2022-08-05T03:07:48.519Z,4.18
2022-08-05T03:10:09.522Z,8.25
2022-08-05T03:12:39.897Z,5.93
2022-08-05T03:15:10.240Z,7.13
2022-08-05T03:17:41.574Z,5.53
2022-08-05T03:20:10.269Z,5.72
2022-08-05T03:22:36.925Z,7.55
2022-08-05T03:25:32.880Z,7.68
2022-08-05T03:27:59.011Z,7.22
2022-08-05T03:30:33.443Z,9.45
2022-08-05T03:33:01.996Z,6.78
2022-08-05T03:35:29.030Z,8.25
2022-08-05T03:38:02.660Z,8.68
2022-08-05T03:40:32.150Z,8.25
2022-08-05T03:43:15.659Z,4.50
2022-08-05T03:45:57.084Z,5.28
2022-08-05T03:48:23.911Z,8.68
2022-08-05T03:51:04.873Z,6.30
2022-08-05T03:55:53.958Z,7.10
2022-08-05T03:56:46.443Z,6.65
2022-08-05T03:59:29.188Z,7.00
2022-08-05T04:02:17.299Z,8.93
2022-08-05T04:05:00.957Z,7.20
2022-08-05T04:07:27.792Z,6.28
2022-08-05T04:09:59.665Z,7.00
2022-08-05T04:12:29.572Z,6.85
2022-08-05T04:14:58.148Z,8.00
2022-08-05T04:17:25.341Z,7.68
2022-08-05T04:20:37.856Z,7.85
2022-08-05T04:23:12.642Z,6.82
2022-08-05T04:25:57.556Z,5.75
2022-08-05T04:28:31.001Z,7.22
2022-08-05T04:31:01.016Z,6.60
2022-08-05T04:33:54.414Z,5.47
2022-08-05T04:36:38.222Z,7.50
2022-08-05T04:39:01.888Z,7.03
2022-08-05T04:41:36.925Z,6.88
2022-08-05T04:44:09.289Z,6.55
2022-08-05T04:46:36.546Z,5.38
2022-08-05T04:49:02.984Z,4.10
2022-08-05T04:51:30.537Z,6.03
2022-08-05T04:53:57.291Z,5.35
2022-08-05T04:56:34.421Z,4.95
2022-08-05T04:59:14.034Z,3.95
2022-08-05T05:02:08.196Z,4.95
2022-08-05T05:04:38.194Z,3.58
2022-08-05T05:07:05.216Z,4.20
2022-08-05T05:09:37.422Z,5.00
2022-08-05T05:12:05.145Z,4.13
2022-08-05T05:14:32.757Z,5.47
2022-08-05T05:17:03.378Z,5.32
2022-08-05T05:19:39.572Z,5.50
2022-08-05T05:22:24.219Z,4.80
2022-08-05T05:24:57.713Z,5.15
2022-08-05T05:27:41.773Z,5.53
2022-08-05T05:30:30.593Z,4.70
2022-08-05T05:33:00.407Z,6.55
2022-08-05T05:35:29.125Z,4.53
2022-08-05T05:38:02.925Z,5.97
2022-08-05T05:40:32.021Z,3.95
2022-08-05T05:42:59.309Z,6.10
2022-08-05T05:45:25.978Z,4.53
2022-08-05T05:48:05.689Z,5.05
2022-08-05T05:50:35.654Z,5.15
2022-08-05T05:53:21.285Z,5.82
2022-08-05T05:55:52.178Z,6.03
2022-08-05T05:58:31.775Z,6.63
2022-08-05T06:01:12.153Z,4.10
2022-08-05T06:03:53.605Z,4.25
2022-08-05T06:06:28.106Z,4.72
2022-08-05T06:08:58.261Z,4.28
2022-08-05T06:11:24.859Z,5.03
2022-08-05T06:13:54.001Z,4.50
2022-08-05T06:16:30.953Z,3.83
2022-08-05T06:19:01.284Z,4.03
2022-08-05T06:21:36.554Z,4.28
2022-08-05T06:24:04.492Z,4.22
2022-08-05T06:26:33.939Z,3.65
2022-08-05T06:29:03.700Z,5.05
2022-08-05T06:31:33.585Z,3.03
2022-08-05T06:34:07.136Z,5.35
2022-08-05T06:36:56.709Z,3.65
2022-08-05T06:39:22.248Z,2.65
2022-08-05T06:41:53.446Z,3.22
2022-08-05T06:44:19.877Z,3.60
2022-08-05T06:46:50.860Z,3.88
2022-08-05T06:49:17.696Z,2.75
2022-08-05T06:51:45.559Z,3.65
2022-08-05T06:54:18.240Z,2.28
2022-08-05T06:56:55.026Z,3.15
2022-08-05T06:59:38.498Z,2.25
2022-08-05T07:02:05.404Z,2.40
2022-08-05T07:04:31.797Z,3.08
2022-08-05T07:06:59.563Z,3.92
2022-08-05T07:09:26.064Z,3.25
2022-08-05T07:12:00.323Z,3.42
2022-08-05T07:14:45.861Z,4.57
2022-08-05T07:18:01.764Z,2.22
2022-08-05T07:22:45.781Z,5.00
2022-08-05T07:25:55.316Z,3.22
2022-08-05T07:28:07.354Z,3.33
2022-08-05T07:30:39.530Z,5.15
2022-08-05T07:33:15.503Z,2.83
2022-08-05T07:36:03.190Z,2.17
2022-08-05T07:38:33.656Z,1.85
2022-08-05T07:42:08.330Z,1.92
2022-08-05T07:43:57.934Z,2.67
2022-08-05T07:46:29.037Z,2.67
2022-08-05T07:49:01.878Z,2.90
2022-08-05T07:54:05.210Z,3.67
2022-08-05T07:57:01.155Z,2.33
2022-08-05T07:59:17.993Z,2.40
2022-08-05T08:01:51.669Z,2.80
2022-08-05T08:04:24.404Z,4.65
2022-08-05T08:07:05.471Z,2.17
2022-08-05T08:09:33.752Z,2.22
2022-08-05T08:12:09.026Z,2.78
2022-08-05T08:14:42.096Z,2.53
2022-08-05T08:17:15.981Z,4.20
2022-08-05T08:20:22.727Z,1.60
2022-08-05T08:22:35.084Z,3.22
2022-08-05T08:25:02.779Z,2.13
2022-08-05T08:27:40.185Z,3.15
2022-08-05T08:30:28.589Z,2.25
2022-08-05T08:33:02.542Z,2.83
2022-08-05T08:35:35.107Z,2.72
2022-08-05T08:38:07.766Z,1.80
2022-08-05T08:40:35.237Z,2.15
2022-08-05T08:45:16.839Z,2.58
2022-08-05T08:45:52.993Z,2.63
2022-08-05T08:48:36.080Z,2.28
2022-08-05T08:51:54.475Z,3.67
2022-08-05T08:53:53.605Z,2.17
2022-08-05T08:56:22.215Z,2.80
2022-08-05T08:58:49.559Z,2.08
2022-08-05T09:01:18.820Z,3.10
2022-08-05T09:03:46.977Z,2.05
2022-08-05T09:06:17.237Z,3.50
2022-08-05T09:08:46.809Z,3.30
2022-08-05T09:11:14.769Z,2.58
2022-08-05T09:14:00.871Z,2.05
2022-08-05T09:16:28.688Z,2.58
2022-08-05T09:18:55.759Z,2.58
2022-08-05T09:22:22.447Z,2.17
2022-08-05T09:24:14.615Z,3.75
2022-08-05T09:26:43.554Z,5.00
2022-08-05T09:29:10.273Z,3.58
2022-08-05T09:32:42.167Z,3.00
2022-08-05T09:34:23.262Z,2.72
2022-08-05T09:36:55.186Z,1.70
2022-08-05T09:39:24.588Z,3.58
2022-08-05T09:42:08.415Z,2.60
2022-08-05T09:44:51.229Z,2.83
2022-08-05T09:47:22.882Z,2.63
2022-08-05T09:50:00.638Z,3.63
2022-08-05T09:52:29.944Z,2.95
2022-08-05T09:55:57.086Z,3.70
2022-08-05T09:57:59.700Z,4.32
2022-08-05T10:02:54.898Z,2.17
2022-08-05T10:05:26.978Z,2.20
2022-08-05T10:08:35.880Z,3.70
2022-08-05T10:10:45.501Z,1.55
2022-08-05T10:13:31.813Z,3.10
2022-08-05T10:16:37.804Z,2.85
2022-08-05T10:19:10.135Z,3.28
2022-08-05T10:21:40.136Z,2.25
2022-08-05T10:24:10.680Z,2.42
2022-08-05T10:26:37.907Z,2.17
2022-08-05T10:29:23.904Z,3.10
2022-08-05T10:32:52.563Z,2.63
2022-08-05T10:34:53.808Z,1.35
2022-08-05T10:37:21.006Z,2.13
2022-08-05T10:39:58.978Z,2.80
2022-08-05T10:42:33.781Z,2.05
2022-08-05T10:45:01.753Z,4.35
2022-08-05T10:47:33.221Z,3.85
2022-08-05T10:50:32.695Z,2.10
2022-08-05T10:53:01.003Z,3.78
2022-08-05T10:55:30.243Z,2.25
2022-08-05T10:58:09.760Z,2.78
2022-08-05T11:00:42.287Z,2.63
2022-08-05T11:03:25.313Z,1.55
2022-08-05T11:06:15.449Z,3.42
2022-08-05T11:09:13.217Z,2.38
2022-08-05T11:11:53.243Z,2.20
2022-08-05T11:18:07.390Z,1.63
2022-08-05T11:20:37.321Z,2.22
2022-08-05T11:23:33.615Z,2.78
2022-08-05T11:26:17.166Z,2.78
2022-08-05T11:28:56.073Z,3.20
2022-08-05T11:31:56.713Z,4.88
2022-08-05T11:34:17.206Z,2.88
2022-08-05T11:36:52.595Z,1.48
2022-08-05T11:39:49.036Z,4.22
2022-08-05T11:42:18.343Z,3.15
2022-08-05T11:44:53.928Z,2.90
2022-08-05T11:47:48.327Z,1.75
2022-08-05T11:50:09.389Z,2.85
2022-08-05T11:52:35.837Z,2.33
2022-08-05T11:55:07.647Z,2.65
2022-08-05T11:58:08.334Z,1.75
2022-08-05T12:00:31.040Z,4.43
2022-08-05T12:02:57.652Z,3.75
2022-08-05T12:05:32.327Z,2.85
2022-08-05T12:08:10.087Z,2.25
2022-08-05T12:10:45.458Z,4.07
2022-08-05T12:13:16.471Z,3.88
2022-08-05T12:15:44.963Z,2.78
2022-08-05T12:18:12.346Z,3.47
2022-08-05T12:20:39.261Z,2.78
2022-08-05T12:23:12.507Z,5.45
2022-08-05T12:25:56.700Z,2.25
2022-08-05T12:28:50.098Z,2.13
2022-08-05T12:31:23.330Z,1.85
2022-08-05T12:34:01.475Z,3.05
2022-08-05T12:36:30.394Z,2.55
2022-08-05T12:38:58.582Z,3.08
2022-08-05T12:41:34.188Z,1.55
2022-08-05T12:44:03.615Z,2.80
2022-08-05T12:46:31.626Z,3.58
2022-08-05T12:48:59.687Z,5.10
2022-08-05T12:52:14.006Z,2.10
2022-08-05T12:54:36.696Z,3.17
2022-08-05T12:57:09.209Z,3.22
2022-08-05T13:01:56.959Z,3.20
2022-08-05T13:02:41.848Z,2.17
2022-08-05T13:05:12.618Z,3.17
2022-08-05T13:08:00.030Z,4.50
2022-08-05T13:10:28.688Z,3.40
2022-08-05T13:12:58.028Z,3.22
2022-08-05T13:15:41.782Z,2.53
2022-08-05T13:18:18.861Z,4.30
2022-08-05T13:20:47.115Z,3.00
2022-08-05T13:23:13.597Z,1.95
2022-08-05T13:25:52.837Z,2.63
2022-08-05T13:28:26.857Z,4.15
2022-08-05T13:30:53.690Z,3.85
2022-08-05T13:34:24.912Z,2.80
2022-08-05T13:36:09.309Z,4.07
2022-08-05T13:38:38.496Z,2.67
2022-08-05T13:41:10.706Z,5.00
2022-08-05T13:43:43.989Z,1.83
2022-08-05T13:46:12.589Z,3.50
2022-08-05T13:48:57.112Z,4.10
2022-08-05T13:51:40.397Z,3.30
2022-08-05T13:54:13.108Z,2.63
2022-08-05T13:56:45.317Z,2.45
2022-08-05T13:59:20.277Z,2.42
2022-08-05T14:01:59.175Z,2.80
2022-08-05T14:04:50.594Z,2.05
2022-08-05T14:07:59.815Z,2.95
2022-08-05T14:10:19.270Z,2.95
2022-08-05T14:12:54.940Z,3.25
2022-08-05T14:16:06.038Z,2.20
2022-08-05T14:18:14.833Z,3.60
2022-08-05T14:20:47.203Z,5.15
2022-08-05T14:23:18.920Z,2.33
2022-08-05T14:25:53.806Z,3.90
2022-08-05T14:28:26.216Z,4.50
2022-08-05T14:30:53.674Z,2.25
2022-08-05T14:33:22.726Z,3.10
2022-08-05T14:35:50.419Z,4.10
2022-08-05T14:38:31.592Z,2.58
2022-08-05T14:41:01.492Z,3.10
2022-08-05T14:43:59.058Z,4.60
2022-08-05T14:46:18.819Z,4.10
2022-08-05T14:48:49.878Z,2.30
2022-08-05T14:51:17.564Z,3.97
2022-08-05T14:53:44.935Z,3.20
2022-08-05T14:56:14.452Z,6.25
2022-08-05T14:58:53.296Z,3.30
2022-08-05T15:01:24.289Z,2.75
2022-08-05T15:04:09.950Z,3.10
2022-08-05T15:06:38.530Z,4.40
2022-08-05T15:09:06.936Z,3.50
2022-08-05T15:11:51.323Z,4.07
2022-08-05T15:14:35.097Z,3.20
2022-08-05T15:17:09.850Z,4.72
2022-08-05T15:22:21.926Z,2.90
2022-08-05T15:24:53.975Z,3.13
2022-08-05T15:27:20.391Z,3.58
2022-08-05T15:29:46.981Z,2.88
2022-08-05T15:32:16.416Z,3.40
2022-08-05T15:34:43.135Z,4.10
2022-08-05T15:37:14.703Z,2.47
2022-08-05T15:41:00.647Z,3.38
2022-08-05T15:42:55.179Z,1.90
2022-08-05T15:45:15.225Z,2.30
2022-08-05T15:47:42.787Z,5.15
2022-08-05T15:50:13.947Z,3.65
2022-08-05T15:52:54.575Z,2.80
2022-08-05T15:55:24.810Z,2.80
2022-08-05T15:58:08.834Z,4.47
2022-08-05T16:00:57.084Z,3.75
2022-08-05T16:03:21.834Z,3.22
2022-08-05T16:05:52.415Z,3.40
2022-08-05T16:08:19.337Z,2.85
2022-08-05T16:10:45.804Z,3.75
2022-08-05T16:13:12.571Z,3.08
2022-08-05T16:15:51.687Z,3.30
2022-08-05T16:18:18.699Z,3.67
2022-08-05T16:20:46.236Z,3.88
2022-08-05T16:23:12.644Z,2.35
2022-08-05T16:25:39.292Z,5.90
2022-08-05T16:28:10.311Z,4.80
2022-08-05T16:30:37.004Z,3.92
2022-08-05T16:33:04.235Z,5.10
2022-08-05T16:35:32.042Z,2.67
2022-08-05T16:38:15.276Z,3.22
2022-08-05T16:40:51.668Z,3.90
2022-08-05T16:43:23.730Z,2.38
2022-08-05T16:46:07.878Z,5.07
2022-08-05T16:48:38.514Z,4.00
2022-08-05T16:51:10.215Z,4.47
2022-08-05T16:54:05.864Z,3.85
2022-08-05T16:56:29.318Z,3.38
2022-08-05T16:58:56.198Z,3.35
2022-08-05T17:01:24.328Z,3.90
2022-08-05T17:03:51.725Z,4.13
2022-08-05T17:06:18.211Z,3.40
2022-08-05T17:08:52.942Z,4.32
2022-08-05T17:11:23.838Z,3.45
2022-08-05T17:13:51.812Z,3.88
2022-08-05T17:19:02.299Z,4.22
2022-08-05T17:21:35.746Z,3.65
2022-08-05T17:24:19.666Z,6.60
2022-08-05T17:26:50.753Z,3.60
2022-08-05T17:29:17.164Z,3.42
2022-08-05T17:31:58.198Z,5.68
2022-08-05T17:34:30.166Z,6.63
2022-08-05T17:36:59.653Z,4.25
2022-08-05T17:39:33.611Z,3.08
2022-08-05T17:42:19.658Z,7.47
2022-08-05T17:44:50.237Z,3.45
2022-08-05T17:47:21.798Z,3.88
2022-08-05T17:50:00.270Z,6.35
2022-08-05T17:52:49.728Z,3.15
2022-08-05T17:55:22.148Z,4.97
2022-08-05T17:57:50.338Z,5.55
2022-08-05T18:00:17.511Z,5.28
2022-08-05T18:02:47.104Z,2.85
2022-08-05T18:05:16.818Z,4.13
2022-08-05T18:07:44.478Z,4.65
2022-08-05T18:10:20.292Z,6.47
2022-08-05T18:12:47.307Z,6.32
2022-08-05T18:15:14.088Z,4.65
2022-08-05T18:18:00.524Z,3.58
2022-08-05T18:20:29.161Z,4.47
2022-08-05T18:22:58.699Z,4.90
2022-08-05T18:25:32.709Z,3.67
2022-08-05T18:27:59.861Z,4.70
2022-08-05T18:30:32.250Z,5.53
2022-08-05T18:33:00.482Z,7.78
2022-08-05T18:36:01.213Z,4.22
2022-08-05T18:38:19.304Z,5.82
2022-08-05T18:41:55.881Z,6.07
2022-08-05T18:43:42.987Z,6.25
2022-08-05T18:46:15.024Z,4.40
2022-08-05T18:48:42.168Z,7.40
2022-08-05T18:52:06.257Z,3.47
2022-08-05T18:54:14.292Z,4.10
2022-08-05T18:56:40.735Z,5.78
2022-08-05T18:59:44.173Z,3.97
2022-08-05T19:01:57.180Z,5.22
2022-08-05T19:04:25.062Z,4.82
2022-08-05T19:06:51.595Z,3.45
2022-08-05T19:09:20.127Z,3.80
2022-08-05T19:12:00.800Z,6.15
2022-08-05T19:14:44.536Z,6.28
2022-08-05T19:17:16.113Z,4.60
2022-08-05T19:19:47.069Z,5.25
2022-08-05T19:22:17.308Z,7.40
2022-08-05T19:24:55.811Z,7.47
2022-08-05T19:27:24.355Z,2.97
2022-08-05T19:29:57.163Z,7.35
2022-08-05T19:32:26.383Z,5.32
2022-08-05T19:34:55.782Z,5.38
2022-08-05T19:37:29.901Z,3.97
2022-08-05T19:40:12.722Z,5.32
2022-08-05T19:43:05.004Z,4.70
2022-08-05T19:45:30.629Z,4.38
2022-08-05T19:48:03.336Z,4.70
2022-08-05T19:50:35.005Z,3.38
2022-08-05T19:53:09.404Z,4.68
2022-08-05T19:58:28.493Z,4.00
2022-08-05T20:00:56.482Z,5.32
2022-08-05T20:03:25.341Z,6.20
2022-08-05T20:05:56.378Z,4.50
2022-08-05T20:08:24.410Z,5.38
2022-08-05T20:10:57.792Z,6.15
2022-08-05T20:13:54.672Z,4.50
2022-08-05T20:16:10.693Z,5.63
2022-08-05T20:18:37.246Z,5.30
2022-08-05T20:21:05.261Z,5.25
2022-08-05T20:26:17.297Z,5.82
2022-08-05T20:28:45.559Z,4.15
2022-08-05T20:31:12.116Z,3.40
2022-08-05T20:33:38.549Z,3.45
2022-08-05T20:36:16.406Z,4.03
2022-08-05T20:38:53.377Z,3.53
2022-08-05T20:41:26.843Z,4.25
2022-08-05T20:46:55.650Z,4.82
2022-08-05T20:49:24.529Z,5.35
2022-08-05T20:51:53.901Z,6.10
2022-08-05T20:54:20.632Z,6.28
2022-08-05T20:56:50.268Z,4.47
2022-08-05T20:59:26.188Z,6.90
2022-08-05T21:01:53.603Z,5.22
2022-08-05T21:04:22.528Z,3.28
2022-08-05T21:06:55.984Z,6.82
2022-08-05T21:09:22.756Z,4.22
2022-08-05T21:12:10.491Z,5.00
2022-08-05T21:14:41.078Z,8.15
2022-08-05T21:17:10.372Z,8.55
2022-08-05T21:19:47.006Z,4.85
2022-08-05T21:22:18.292Z,4.80
2022-08-05T21:24:45.733Z,9.02
2022-08-05T21:27:15.488Z,6.90
2022-08-05T21:29:43.020Z,8.18
2022-08-05T21:32:17.170Z,4.70
2022-08-05T21:35:06.704Z,3.10
2022-08-05T21:37:33.113Z,2.47
2022-08-05T21:40:04.072Z,6.35
2022-08-05T21:42:44.537Z,6.13
2022-08-05T21:45:11.871Z,4.65
2022-08-05T21:47:56.649Z,3.47
2022-08-05T21:50:27.752Z,8.55
2022-08-05T21:53:04.472Z,3.42
2022-08-05T21:56:01.594Z,6.05
2022-08-05T21:58:19.572Z,6.25
2022-08-05T22:00:51.508Z,7.30
2022-08-05T22:03:18.346Z,6.63
2022-08-05T22:06:06.168Z,5.35
2022-08-05T22:08:34.708Z,5.50
2022-08-05T22:11:01.128Z,5.05
2022-08-05T22:14:32.285Z,5.10
2022-08-05T22:16:39.572Z,6.00
2022-08-05T22:19:00.429Z,6.47
2022-08-05T22:21:27.157Z,5.90
2022-08-05T22:24:39.400Z,5.97
2022-08-05T22:27:18.083Z,5.47
2022-08-05T22:29:44.484Z,4.05
2022-08-05T22:32:12.411Z,5.13
2022-08-05T22:34:43.997Z,5.43
2022-08-05T22:37:12.220Z,5.68
2022-08-05T22:39:38.708Z,6.15
2022-08-05T22:42:12.335Z,7.63
2022-08-05T22:44:48.624Z,6.00
2022-08-05T22:47:29.500Z,5.18
2022-08-05T22:50:23.249Z,5.85
2022-08-05T22:52:44.578Z,6.20
2022-08-05T22:55:19.092Z,5.85
2022-08-05T22:57:49.392Z,5.18
2022-08-05T23:00:18.333Z,8.38
2022-08-05T23:02:47.965Z,5.80
2022-08-05T23:05:15.302Z,5.22
2022-08-05T23:07:44.848Z,4.95
2022-08-05T23:10:12.429Z,5.10
2022-08-05T23:12:38.902Z,5.30
2022-08-05T23:15:09.083Z,3.92
2022-08-05T23:17:37.453Z,4.90
2022-08-05T23:20:10.457Z,5.82
2022-08-05T23:22:47.468Z,5.28
2022-08-05T23:25:17.041Z,7.28
2022-08-05T23:28:01.518Z,6.57
2022-08-05T23:30:29.099Z,4.95
2022-08-05T23:35:25.157Z,5.93
2022-08-05T23:37:55.081Z,6.57
2022-08-05T23:40:27.230Z,4.22
2022-08-05T23:42:53.922Z,8.35
2022-08-05T23:45:20.412Z,5.43
2022-08-05T23:47:53.859Z,7.28
2022-08-05T23:50:26.503Z,6.75
2022-08-05T23:52:55.239Z,7.50
2022-08-05T23:55:22.252Z,2.80
2022-08-05T23:57:52.836Z,6.90
